Airfield :
LOGIN :

Register | Disclaimer

   EN    FR    IT 

 










Legend :    VFR   Marginal VFR   IFR   Intensive IFR   Very Intensive IFR
Visi :
Ceiling :
>= 8 km
>= 3000ft
5 to 8 km
1000 to 3000 ft
1500m to 5 km
500 to 1000 ft
800 to 1500m
200 to 500 ft
< 800m
< 200 ft
Symbols :   Thunderstorms  Fog  Heavy snow  Heavy precipitations  Wind > 20 kt
SIGMETs :     Misc.  Thunderstorms  Icing  Turbulence  Mountain Waves  Volcanic Ashes






- Airport Elevation : 285 ft
- IATA code : OZP


LEMO - Sevilla Moron

CURRENT METAR :
  • 220700Z 16004KT 6000 BKN003 OVC006 14/14 Q1005 NOSIG

EXPIRED METARs :
  • 220635Z VRB01KT 4000 BR FEW001 SCT008 BKN009 14/14 Q1005 NOSIG
  • 220619Z VRB02KT 3000 BR FEW001 SCT011 BKN013 14/14 Q1005 NOSIG
  • 220600Z 00000KT 2000 RA FEW002 SCT006 BKN017 14/14 Q1005 NOSIG
  • 220539Z 30003KT 260V340 0250 R20/P2000 R02/1900 RA SCT001 BKN003 BKN004 14/14 Q1005 NOSIG
  • 220500Z VRB02KT 0250 R20/P2000 R02/0600 FG VV002 14/14 Q1006 NOSIG
  • 220438Z 24004KT 200V270 0300 R20/P2000 R02/0900 FG VV001 14/14 Q1006 NOSIG

TAF AMD TAF LEMO
Valid from the 22 at 07:00 until the 22 at 15:00 UTC


220704Z 2207/2215 VRB03KT 9999 SCT020 BKN035
TEMPO 2207/2209 2000 RA BR BKN004
BECMG 2207/2209 25014KT
TEMPO 2209/2215 24020G35KT 3000 SHRA BKN012 SCT030TCU



MET'MAP, your aeronautical weather chart ! - Copyright ORBIFLY December 2007 - Disclaimer

ORBIFLY MET'MAP TEAM :

Programming & Development : Alexandra Zaïnal
Concept & Development : Baudouin d'Aumeries
Co-Development & Prog : Marc-Olivier Méhu
Technical & hardware support : Manuel Goepfert

Contact : metmap@orbifly.com




SOURCES & CREDITS :

   NOAA